sensor_id;sensor_type;location;lat;lon;timestamp;temperature;humidity
8736;DHT22;4404;49.308;12.178;2023-06-24T05:51:07;17.00;99.90
8736;DHT22;4404;49.308;12.178;2023-06-24T05:59:25;16.50;99.90
8736;DHT22;4404;49.308;12.178;2023-06-24T06:03:33;16.40;99.90
8736;DHT22;4404;49.308;12.178;2023-06-24T06:07:39;16.40;99.90
8736;DHT22;4404;49.308;12.178;2023-06-24T06:09:41;16.80;99.90
8736;DHT22;4404;49.308;12.178;2023-06-24T06:11:44;16.40;99.90
8736;DHT22;4404;49.308;12.178;2023-06-24T06:13:46;16.60;99.90
8736;DHT22;4404;49.308;12.178;2023-06-24T06:15:49;17.10;99.90
8736;DHT22;4404;49.308;12.178;2023-06-24T06:18:05;17.00;99.90
8736;DHT22;4404;49.308;12.178;2023-06-24T06:20:08;16.60;99.90
8736;DHT22;4404;49.308;12.178;2023-06-24T06:22:11;16.70;99.90
8736;DHT22;4404;49.308;12.178;2023-06-24T06:24:15;17.40;99.90
8736;DHT22;4404;49.308;12.178;2023-06-24T06:26:18;18.30;99.90
8736;DHT22;4404;49.308;12.178;2023-06-24T06:28:20;17.60;99.90
8736;DHT22;4404;49.308;12.178;2023-06-24T06:30:22;16.80;99.90
8736;DHT22;4404;49.308;12.178;2023-06-24T06:32:24;18.00;99.90
8736;DHT22;4404;49.308;12.178;2023-06-24T06:34:26;17.80;99.90
8736;DHT22;4404;49.308;12.178;2023-06-24T06:36:28;17.20;99.90
8736;DHT22;4404;49.308;12.178;2023-06-24T06:38:32;17.60;99.90
8736;DHT22;4404;49.308;12.178;2023-06-24T06:40:36;17.90;99.90
8736;DHT22;4404;49.308;12.178;2023-06-24T06:42:38;17.60;99.90
8736;DHT22;4404;49.308;12.178;2023-06-24T06:44:40;17.20;99.90
8736;DHT22;4404;49.308;12.178;2023-06-24T06:46:42;17.30;99.90
8736;DHT22;4404;49.308;12.178;2023-06-24T06:48:44;17.60;99.90
8736;DHT22;4404;49.308;12.178;2023-06-24T06:50:46;19.00;99.90
8736;DHT22;4404;49.308;12.178;2023-06-24T06:52:48;16.70;99.90
8736;DHT22;4404;49.308;12.178;2023-06-24T06:54:50;17.90;99.90
8736;DHT22;4404;49.308;12.178;2023-06-24T06:56:54;18.00;99.90
8736;DHT22;4404;49.308;12.178;2023-06-24T06:58:56;18.20;99.90
8736;DHT22;4404;49.308;12.178;2023-06-24T07:00:58;17.70;99.90
8736;DHT22;4404;49.308;12.178;2023-06-24T07:03:05;18.40;99.90
8736;DHT22;4404;49.308;12.178;2023-06-24T07:07:16;18.40;99.90
8736;DHT22;4404;49.308;12.178;2023-06-24T07:09:35;18.60;99.90
8736;DHT22;4404;49.308;12.178;2023-06-24T07:11:46;18.80;99.90
8736;DHT22;4404;49.308;12.178;2023-06-24T07:13:52;18.00;99.90
8736;DHT22;4404;49.308;12.178;2023-06-24T07:15:59;18.90;99.90
8736;DHT22;4404;49.308;12.178;2023-06-24T07:18:05;18.90;99.90
8736;DHT22;4404;49.308;12.178;2023-06-24T07:20:10;18.80;99.90
8736;DHT22;4404;49.308;12.178;2023-06-24T07:22:28;18.90;99.90
8736;DHT22;4404;49.308;12.178;2023-06-24T07:24:36;19.00;99.90
8736;DHT22;4404;49.308;12.178;2023-06-24T07:28:58;18.80;99.90
8736;DHT22;4404;49.308;12.178;2023-06-24T07:33:39;18.80;99.90
8736;DHT22;4404;49.308;12.178;2023-06-24T07:37:10;18.70;99.90
8736;DHT22;4404;49.308;12.178;2023-06-24T07:39:33;19.50;99.90
8736;DHT22;4404;49.308;12.178;2023-06-24T07:41:47;18.80;99.90
8736;DHT22;4404;49.308;12.178;2023-06-24T07:44:06;19.30;99.90
8736;DHT22;4404;49.308;12.178;2023-06-24T07:47:06;18.80;99.90
8736;DHT22;4404;49.308;12.178;2023-06-24T07:49:32;18.90;99.90
8736;DHT22;4404;49.308;12.178;2023-06-24T07:52:34;19.20;99.90
8736;DHT22;4404;49.308;12.178;2023-06-24T07:55:30;19.40;99.90
8736;DHT22;4404;49.308;12.178;2023-06-24T07:57:47;19.60;99.90
8736;DHT22;4404;49.308;12.178;2023-06-24T08:00:33;19.50;99.90
8736;DHT22;4404;49.308;12.178;2023-06-24T08:13:36;20.10;99.90
8736;DHT22;4404;49.308;12.178;2023-06-24T08:20:55;20.00;99.90
8736;DHT22;4404;49.308;12.178;2023-06-24T08:24:20;18.60;99.90
8736;DHT22;4404;49.308;12.178;2023-06-24T08:32:57;20.70;99.90
8736;DHT22;4404;49.308;12.178;2023-06-24T08:35:05;20.70;99.90
8736;DHT22;4404;49.308;12.178;2023-06-24T08:37:08;20.90;99.90
8736;DHT22;4404;49.308;12.178;2023-06-24T08:39:10;21.00;99.90
8736;DHT22;4404;49.308;12.178;2023-06-24T08:41:14;21.00;99.90
8736;DHT22;4404;49.308;12.178;2023-06-24T08:43:19;21.20;99.90
8736;DHT22;4404;49.308;12.178;2023-06-24T08:45:24;21.60;99.90
8736;DHT22;4404;49.308;12.178;2023-06-24T08:47:28;21.70;99.90
8736;DHT22;4404;49.308;12.178;2023-06-24T08:49:33;21.60;99.90
8736;DHT22;4404;49.308;12.178;2023-06-24T08:51:42;21.40;99.90
8736;DHT22;4404;49.308;12.178;2023-06-24T08:53:48;21.50;99.90
8736;DHT22;4404;49.308;12.178;2023-06-24T08:55:56;21.70;99.90
8736;DHT22;4404;49.308;12.178;2023-06-24T09:02:06;21.80;99.90
8736;DHT22;4404;49.308;12.178;2023-06-24T09:04:11;21.80;99.90
8736;DHT22;4404;49.308;12.178;2023-06-24T09:06:15;21.70;99.90
8736;DHT22;4404;49.308;12.178;2023-06-24T09:08:21;21.70;99.90
8736;DHT22;4404;49.308;12.178;2023-06-24T09:10:34;21.40;99.90
8736;DHT22;4404;49.308;12.178;2023-06-24T09:12:36;21.40;99.90
8736;DHT22;4404;49.308;12.178;2023-06-24T09:14:41;21.60;99.90
8736;DHT22;4404;49.308;12.178;2023-06-24T09:16:54;21.80;99.90
8736;DHT22;4404;49.308;12.178;2023-06-24T09:18:57;22.00;99.90
8736;DHT22;4404;49.308;12.178;2023-06-24T09:21:01;22.10;99.90
8736;DHT22;4404;49.308;12.178;2023-06-24T09:23:05;22.20;99.90
8736;DHT22;4404;49.308;12.178;2023-06-24T09:27:13;22.50;99.90
8736;DHT22;4404;49.308;12.178;2023-06-24T09:29:15;22.60;99.90
8736;DHT22;4404;49.308;12.178;2023-06-24T09:31:18;22.60;99.90
8736;DHT22;4404;49.308;12.178;2023-06-24T09:33:21;22.60;99.90
8736;DHT22;4404;49.308;12.178;2023-06-24T09:35:25;22.60;99.90
8736;DHT22;4404;49.308;12.178;2023-06-24T09:37:27;22.50;99.90
8736;DHT22;4404;49.308;12.178;2023-06-24T09:39:38;22.50;99.90
8736;DHT22;4404;49.308;12.178;2023-06-24T09:41:42;23.80;99.90
8736;DHT22;4404;49.308;12.178;2023-06-24T09:43:44;22.90;99.90
8736;DHT22;4404;49.308;12.178;2023-06-24T09:45:49;23.20;99.90
8736;DHT22;4404;49.308;12.178;2023-06-24T09:47:52;23.20;99.90
8736;DHT22;4404;49.308;12.178;2023-06-24T09:49:54;23.10;99.90
8736;DHT22;4404;49.308;12.178;2023-06-24T09:51:57;23.20;99.90
8736;DHT22;4404;49.308;12.178;2023-06-24T09:54:00;23.20;99.90
8736;DHT22;4404;49.308;12.178;2023-06-24T09:56:04;23.30;99.90
8736;DHT22;4404;49.308;12.178;2023-06-24T09:58:11;23.30;99.90
8736;DHT22;4404;49.308;12.178;2023-06-24T10:00:15;23.30;99.90
8736;DHT22;4404;49.308;12.178;2023-06-24T10:02:19;23.40;99.90
8736;DHT22;4404;49.308;12.178;2023-06-24T10:04:22;23.50;99.90
8736;DHT22;4404;49.308;12.178;2023-06-24T10:06:24;23.80;99.90
8736;DHT22;4404;49.308;12.178;2023-06-24T10:08:29;24.10;99.90
8736;DHT22;4404;49.308;12.178;2023-06-24T10:10:32;23.90;99.90
8736;DHT22;4404;49.308;12.178;2023-06-24T10:12:36;23.90;99.90
8736;DHT22;4404;49.308;12.178;2023-06-24T10:14:44;24.10;99.90
8736;DHT22;4404;49.308;12.178;2023-06-24T10:16:49;24.10;99.90
8736;DHT22;4404;49.308;12.178;2023-06-24T10:19:05;24.10;99.90
8736;DHT22;4404;49.308;12.178;2023-06-24T10:21:10;24.10;99.90
8736;DHT22;4404;49.308;12.178;2023-06-24T10:23:15;24.20;99.90
8736;DHT22;4404;49.308;12.178;2023-06-24T10:25:18;24.50;99.90
8736;DHT22;4404;49.308;12.178;2023-06-24T10:27:22;24.70;99.90
8736;DHT22;4404;49.308;12.178;2023-06-24T10:29:35;24.90;99.70
8736;DHT22;4404;49.308;12.178;2023-06-24T10:31:51;24.80;99.60
8736;DHT22;4404;49.308;12.178;2023-06-24T10:33:58;24.70;99.90
8736;DHT22;4404;49.308;12.178;2023-06-24T10:36:00;24.50;98.60
8736;DHT22;4404;49.308;12.178;2023-06-24T10:38:02;24.50;99.90
8736;DHT22;4404;49.308;12.178;2023-06-24T10:40:05;24.60;99.20
8736;DHT22;4404;49.308;12.178;2023-06-24T10:42:36;24.80;99.20
8736;DHT22;4404;49.308;12.178;2023-06-24T10:44:46;25.10;99.20
8736;DHT22;4404;49.308;12.178;2023-06-24T10:46:53;25.40;97.50
8736;DHT22;4404;49.308;12.178;2023-06-24T10:48:55;25.40;95.60
8736;DHT22;4404;49.308;12.178;2023-06-24T10:50:57;25.40;97.00
8736;DHT22;4404;49.308;12.178;2023-06-24T10:53:00;25.50;95.30
8736;DHT22;4404;49.308;12.178;2023-06-24T10:55:03;25.30;94.50
8736;DHT22;4404;49.308;12.178;2023-06-24T10:57:06;25.30;96.50
8736;DHT22;4404;49.308;12.178;2023-06-24T10:59:08;25.50;96.40
8736;DHT22;4404;49.308;12.178;2023-06-24T11:01:12;25.30;95.40
8736;DHT22;4404;49.308;12.178;2023-06-24T11:03:17;25.00;95.60
8736;DHT22;4404;49.308;12.178;2023-06-24T11:05:21;24.90;95.80
8736;DHT22;4404;49.308;12.178;2023-06-24T11:07:24;25.20;94.50
8736;DHT22;4404;49.308;12.178;2023-06-24T11:09:27;25.30;94.50
8736;DHT22;4404;49.308;12.178;2023-06-24T11:11:29;25.40;94.40
8736;DHT22;4404;49.308;12.178;2023-06-24T11:13:33;25.60;93.70
8736;DHT22;4404;49.308;12.178;2023-06-24T11:15:36;25.70;92.00
8736;DHT22;4404;49.308;12.178;2023-06-24T11:17:40;25.30;92.20
8736;DHT22;4404;49.308;12.178;2023-06-24T11:19:42;25.10;92.00
8736;DHT22;4404;49.308;12.178;2023-06-24T11:21:44;24.90;92.00
8736;DHT22;4404;49.308;12.178;2023-06-24T11:23:46;24.90;93.20
8736;DHT22;4404;49.308;12.178;2023-06-24T11:25:48;25.10;92.30
8736;DHT22;4404;49.308;12.178;2023-06-24T11:27:51;25.40;91.20
8736;DHT22;4404;49.308;12.178;2023-06-24T11:29:54;25.60;91.60
8736;DHT22;4404;49.308;12.178;2023-06-24T11:31:58;25.60;94.50
8736;DHT22;4404;49.308;12.178;2023-06-24T11:34:02;26.00;93.40
8736;DHT22;4404;49.308;12.178;2023-06-24T11:36:09;26.30;92.60
8736;DHT22;4404;49.308;12.178;2023-06-24T11:38:11;26.40;88.60
8736;DHT22;4404;49.308;12.178;2023-06-24T11:40:16;26.40;90.10
8736;DHT22;4404;49.308;12.178;2023-06-24T11:42:23;26.30;89.70
8736;DHT22;4404;49.308;12.178;2023-06-24T11:44:25;26.00;88.50
8736;DHT22;4404;49.308;12.178;2023-06-24T11:46:27;25.80;90.00
8736;DHT22;4404;49.308;12.178;2023-06-24T11:48:39;25.80;91.10
8736;DHT22;4404;49.308;12.178;2023-06-24T11:50:43;25.90;88.00
8736;DHT22;4404;49.308;12.178;2023-06-24T11:52:47;26.00;87.80
8736;DHT22;4404;49.308;12.178;2023-06-24T11:54:51;26.20;85.60
8736;DHT22;4404;49.308;12.178;2023-06-24T11:56:53;26.10;85.00
8736;DHT22;4404;49.308;12.178;2023-06-24T11:58:55;25.90;88.00
8736;DHT22;4404;49.308;12.178;2023-06-24T12:00:58;26.00;86.30
8736;DHT22;4404;49.308;12.178;2023-06-24T12:03:01;26.30;88.20
8736;DHT22;4404;49.308;12.178;2023-06-24T12:05:04;26.50;83.10
8736;DHT22;4404;49.308;12.178;2023-06-24T12:07:08;26.70;84.00
8736;DHT22;4404;49.308;12.178;2023-06-24T12:09:10;26.80;82.80
8736;DHT22;4404;49.308;12.178;2023-06-24T12:11:13;26.40;81.70
8736;DHT22;4404;49.308;12.178;2023-06-24T12:13:15;26.20;82.10
8736;DHT22;4404;49.308;12.178;2023-06-24T12:15:17;26.40;82.10
8736;DHT22;4404;49.308;12.178;2023-06-24T12:17:19;26.20;82.50
8736;DHT22;4404;49.308;12.178;2023-06-24T12:19:21;26.30;86.20
8736;DHT22;4404;49.308;12.178;2023-06-24T12:21:23;26.60;82.70
8736;DHT22;4404;49.308;12.178;2023-06-24T12:23:26;26.80;84.70
8736;DHT22;4404;49.308;12.178;2023-06-24T12:25:28;26.90;78.90
8736;DHT22;4404;49.308;12.178;2023-06-24T12:27:30;27.40;83.50
8736;DHT22;4404;49.308;12.178;2023-06-24T12:29:34;27.90;79.60
8736;DHT22;4404;49.308;12.178;2023-06-24T12:31:36;27.80;78.00
8736;DHT22;4404;49.308;12.178;2023-06-24T12:33:38;28.20;78.40
8736;DHT22;4404;49.308;12.178;2023-06-24T12:35:40;28.60;72.00
8736;DHT22;4404;49.308;12.178;2023-06-24T12:37:42;28.90;67.80
8736;DHT22;4404;49.308;12.178;2023-06-24T12:39:47;29.20;66.30
8736;DHT22;4404;49.308;12.178;2023-06-24T12:41:51;29.70;66.30
8736;DHT22;4404;49.308;12.178;2023-06-24T12:43:53;30.00;65.30
8736;DHT22;4404;49.308;12.178;2023-06-24T12:45:55;30.40;67.40
8736;DHT22;4404;49.308;12.178;2023-06-24T12:47:57;30.00;65.40
8736;DHT22;4404;49.308;12.178;2023-06-24T12:49:59;29.90;65.90
8736;DHT22;4404;49.308;12.178;2023-06-24T12:52:02;30.00;63.00
8736;DHT22;4404;49.308;12.178;2023-06-24T12:54:04;30.40;66.30
8736;DHT22;4404;49.308;12.178;2023-06-24T12:56:07;30.50;61.10
8736;DHT22;4404;49.308;12.178;2023-06-24T12:58:10;30.40;62.90
8736;DHT22;4404;49.308;12.178;2023-06-24T13:00:12;30.20;65.30
8736;DHT22;4404;49.308;12.178;2023-06-24T13:02:15;29.90;65.80
8736;DHT22;4404;49.308;12.178;2023-06-24T13:04:17;30.00;64.10
8736;DHT22;4404;49.308;12.178;2023-06-24T13:06:20;30.40;62.90
8736;DHT22;4404;49.308;12.178;2023-06-24T13:08:22;31.40;59.10
8736;DHT22;4404;49.308;12.178;2023-06-24T13:10:24;31.40;59.30
8736;DHT22;4404;49.308;12.178;2023-06-24T13:12:28;31.20;56.00
8736;DHT22;4404;49.308;12.178;2023-06-24T13:14:30;30.80;57.40
8736;DHT22;4404;49.308;12.178;2023-06-24T13:16:32;30.80;58.40
8736;DHT22;4404;49.308;12.178;2023-06-24T13:18:34;31.60;59.40
8736;DHT22;4404;49.308;12.178;2023-06-24T13:20:36;31.30;56.10
8736;DHT22;4404;49.308;12.178;2023-06-24T13:22:38;30.70;58.20
8736;DHT22;4404;49.308;12.178;2023-06-24T13:24:40;30.90;58.00
8736;DHT22;4404;49.308;12.178;2023-06-24T13:26:42;31.20;53.90
8736;DHT22;4404;49.308;12.178;2023-06-24T13:28:46;31.30;55.20
8736;DHT22;4404;49.308;12.178;2023-06-24T13:30:49;31.40;52.30
8736;DHT22;4404;49.308;12.178;2023-06-24T13:32:55;30.80;52.10
8736;DHT22;4404;49.308;12.178;2023-06-24T13:34:56;30.90;52.00
8736;DHT22;4404;49.308;12.178;2023-06-24T13:36:58;30.70;50.80
8736;DHT22;4404;49.308;12.178;2023-06-24T13:39:01;30.50;50.40
8736;DHT22;4404;49.308;12.178;2023-06-24T13:41:04;30.60;51.70
8736;DHT22;4404;49.308;12.178;2023-06-24T13:43:06;30.50;50.70
8736;DHT22;4404;49.308;12.178;2023-06-24T13:45:10;30.60;51.00
8736;DHT22;4404;49.308;12.178;2023-06-24T13:47:12;30.70;50.60
8736;DHT22;4404;49.308;12.178;2023-06-24T13:49:14;30.60;52.00
8736;DHT22;4404;49.308;12.178;2023-06-24T13:51:18;30.80;52.00
8736;DHT22;4404;49.308;12.178;2023-06-24T13:53:20;30.70;49.00
8736;DHT22;4404;49.308;12.178;2023-06-24T13:55:23;30.80;51.00
8736;DHT22;4404;49.308;12.178;2023-06-24T13:57:25;30.90;51.50
8736;DHT22;4404;49.308;12.178;2023-06-24T13:59:27;31.00;50.80
8736;DHT22;4404;49.308;12.178;2023-06-24T14:01:30;31.10;51.10
8736;DHT22;4404;49.308;12.178;2023-06-24T14:03:33;30.70;50.80
8736;DHT22;4404;49.308;12.178;2023-06-24T14:05:35;30.50;51.20
8736;DHT22;4404;49.308;12.178;2023-06-24T14:07:37;30.40;50.20
8736;DHT22;4404;49.308;12.178;2023-06-24T14:09:39;29.90;52.10
8736;DHT22;4404;49.308;12.178;2023-06-24T14:11:41;30.20;52.40
8736;DHT22;4404;49.308;12.178;2023-06-24T14:13:44;30.00;52.40
8736;DHT22;4404;49.308;12.178;2023-06-24T14:15:46;29.60;52.70
8736;DHT22;4404;49.308;12.178;2023-06-24T14:17:49;29.50;55.70
8736;DHT22;4404;49.308;12.178;2023-06-24T14:19:51;29.60;57.40
8736;DHT22;4404;49.308;12.178;2023-06-24T14:21:53;29.30;55.70
8736;DHT22;4404;49.308;12.178;2023-06-24T14:23:55;29.20;55.30
8736;DHT22;4404;49.308;12.178;2023-06-24T14:25:58;29.10;57.30
8736;DHT22;4404;49.308;12.178;2023-06-24T14:28:00;29.00;55.70
8736;DHT22;4404;49.308;12.178;2023-06-24T14:30:03;29.00;56.80
8736;DHT22;4404;49.308;12.178;2023-06-24T14:32:07;28.90;56.70
8736;DHT22;4404;49.308;12.178;2023-06-24T14:34:11;28.90;55.50
8736;DHT22;4404;49.308;12.178;2023-06-24T14:36:13;28.40;55.60
8736;DHT22;4404;49.308;12.178;2023-06-24T14:38:15;28.50;56.20
8736;DHT22;4404;49.308;12.178;2023-06-24T14:40:17;28.70;57.70
8736;DHT22;4404;49.308;12.178;2023-06-24T14:42:19;28.50;57.40
8736;DHT22;4404;49.308;12.178;2023-06-24T14:44:21;28.50;57.30
8736;DHT22;4404;49.308;12.178;2023-06-24T14:46:23;28.50;58.80
8736;DHT22;4404;49.308;12.178;2023-06-24T14:48:25;28.70;59.00
8736;DHT22;4404;49.308;12.178;2023-06-24T14:50:29;28.80;57.40
8736;DHT22;4404;49.308;12.178;2023-06-24T14:52:31;28.80;59.00
8736;DHT22;4404;49.308;12.178;2023-06-24T14:54:36;28.90;58.70
8736;DHT22;4404;49.308;12.178;2023-06-24T14:56:38;28.90;56.80
8736;DHT22;4404;49.308;12.178;2023-06-24T14:58:44;28.90;56.40
8736;DHT22;4404;49.308;12.178;2023-06-24T15:02:56;28.60;58.90
8736;DHT22;4404;49.308;12.178;2023-06-24T15:04:58;28.70;60.70
8736;DHT22;4404;49.308;12.178;2023-06-24T15:07:02;28.50;61.30
8736;DHT22;4404;49.308;12.178;2023-06-24T15:09:04;28.70;60.40
8736;DHT22;4404;49.308;12.178;2023-06-24T15:11:06;28.60;61.20
8736;DHT22;4404;49.308;12.178;2023-06-24T15:13:08;28.60;62.00
8736;DHT22;4404;49.308;12.178;2023-06-24T15:15:10;28.50;61.50
8736;DHT22;4404;49.308;12.178;2023-06-24T15:17:12;28.30;61.50
8736;DHT22;4404;49.308;12.178;2023-06-24T15:19:14;27.90;61.90
8736;DHT22;4404;49.308;12.178;2023-06-24T15:21:16;27.90;62.90
8736;DHT22;4404;49.308;12.178;2023-06-24T15:23:20;27.90;60.50
8736;DHT22;4404;49.308;12.178;2023-06-24T15:25:22;27.80;61.70
8736;DHT22;4404;49.308;12.178;2023-06-24T15:27:26;28.00;62.80
8736;DHT22;4404;49.308;12.178;2023-06-24T15:29:28;28.30;61.10
8736;DHT22;4404;49.308;12.178;2023-06-24T15:31:30;28.50;58.70
8736;DHT22;4404;49.308;12.178;2023-06-24T15:33:32;28.50;58.70
8736;DHT22;4404;49.308;12.178;2023-06-24T15:35:34;28.60;60.80
8736;DHT22;4404;49.308;12.178;2023-06-24T15:37:36;28.70;59.60
8736;DHT22;4404;49.308;12.178;2023-06-24T15:39:40;28.70;61.20
8736;DHT22;4404;49.308;12.178;2023-06-24T15:41:46;28.60;59.80
8736;DHT22;4404;49.308;12.178;2023-06-24T15:43:50;28.60;58.80
8736;DHT22;4404;49.308;12.178;2023-06-24T15:45:52;28.40;59.10
8736;DHT22;4404;49.308;12.178;2023-06-24T15:47:54;28.50;58.90
8736;DHT22;4404;49.308;12.178;2023-06-24T15:49:56;28.40;56.30
8736;DHT22;4404;49.308;12.178;2023-06-24T15:51:58;28.30;56.20
8736;DHT22;4404;49.308;12.178;2023-06-24T15:54:03;28.50;56.50
8736;DHT22;4404;49.308;12.178;2023-06-24T15:56:25;28.40;55.50
8736;DHT22;4404;49.308;12.178;2023-06-24T15:58:30;28.30;55.10
8736;DHT22;4404;49.308;12.178;2023-06-24T16:00:32;28.20;52.50
8736;DHT22;4404;49.308;12.178;2023-06-24T16:02:34;28.00;55.00
8736;DHT22;4404;49.308;12.178;2023-06-24T16:04:39;28.20;53.70
8736;DHT22;4404;49.308;12.178;2023-06-24T16:06:41;28.20;54.80
8736;DHT22;4404;49.308;12.178;2023-06-24T16:08:43;28.20;52.60
8736;DHT22;4404;49.308;12.178;2023-06-24T16:10:45;28.30;52.20
8736;DHT22;4404;49.308;12.178;2023-06-24T16:12:48;28.30;51.50
8736;DHT22;4404;49.308;12.178;2023-06-24T16:14:50;28.20;51.90
8736;DHT22;4404;49.308;12.178;2023-06-24T16:16:53;27.90;52.80
8736;DHT22;4404;49.308;12.178;2023-06-24T16:18:55;27.60;53.50
8736;DHT22;4404;49.308;12.178;2023-06-24T16:20:57;27.70;54.30
8736;DHT22;4404;49.308;12.178;2023-06-24T16:22:59;27.80;52.20
8736;DHT22;4404;49.308;12.178;2023-06-24T16:25:03;27.80;50.80
8736;DHT22;4404;49.308;12.178;2023-06-24T16:27:05;27.80;52.60
8736;DHT22;4404;49.308;12.178;2023-06-24T16:29:09;27.80;52.50
8736;DHT22;4404;49.308;12.178;2023-06-24T16:31:11;27.80;52.80
8736;DHT22;4404;49.308;12.178;2023-06-24T16:33:13;27.90;52.70
8736;DHT22;4404;49.308;12.178;2023-06-24T16:35:15;27.90;53.10
8736;DHT22;4404;49.308;12.178;2023-06-24T16:37:17;27.90;52.90
8736;DHT22;4404;49.308;12.178;2023-06-24T16:39:19;28.00;52.60
8736;DHT22;4404;49.308;12.178;2023-06-24T16:41:22;27.90;53.70
8736;DHT22;4404;49.308;12.178;2023-06-24T16:43:24;27.80;51.60
8736;DHT22;4404;49.308;12.178;2023-06-24T16:45:27;27.80;54.00
8736;DHT22;4404;49.308;12.178;2023-06-24T16:47:29;27.80;55.30
8736;DHT22;4404;49.308;12.178;2023-06-24T16:49:32;27.50;54.60
8736;DHT22;4404;49.308;12.178;2023-06-24T16:51:34;27.40;55.30
8736;DHT22;4404;49.308;12.178;2023-06-24T16:53:36;27.20;54.40
8736;DHT22;4404;49.308;12.178;2023-06-24T16:55:38;27.20;54.50
8736;DHT22;4404;49.308;12.178;2023-06-24T16:57:40;27.20;53.70
8736;DHT22;4404;49.308;12.178;2023-06-24T16:59:42;27.10;54.10
8736;DHT22;4404;49.308;12.178;2023-06-24T17:01:46;27.00;55.20
8736;DHT22;4404;49.308;12.178;2023-06-24T17:03:48;27.00;55.70
8736;DHT22;4404;49.308;12.178;2023-06-24T17:05:50;26.90;53.00
8736;DHT22;4404;49.308;12.178;2023-06-24T17:07:52;26.80;52.80
8736;DHT22;4404;49.308;12.178;2023-06-24T17:09:54;26.80;54.10
8736;DHT22;4404;49.308;12.178;2023-06-24T17:11:56;26.80;52.40
8736;DHT22;4404;49.308;12.178;2023-06-24T17:13:58;26.70;53.60
8736;DHT22;4404;49.308;12.178;2023-06-24T17:16:01;26.70;54.60
8736;DHT22;4404;49.308;12.178;2023-06-24T17:18:04;26.60;54.30
8736;DHT22;4404;49.308;12.178;2023-06-24T17:20:07;26.50;53.60
8736;DHT22;4404;49.308;12.178;2023-06-24T17:22:10;26.40;55.10
8736;DHT22;4404;49.308;12.178;2023-06-24T17:24:12;26.40;54.10
8736;DHT22;4404;49.308;12.178;2023-06-24T17:26:14;26.40;54.00
8736;DHT22;4404;49.308;12.178;2023-06-24T17:28:16;26.40;57.70
8736;DHT22;4404;49.308;12.178;2023-06-24T17:30:19;26.40;54.40
8736;DHT22;4404;49.308;12.178;2023-06-24T17:32:21;26.40;58.10
8736;DHT22;4404;49.308;12.178;2023-06-24T17:34:24;26.40;62.80
8736;DHT22;4404;49.308;12.178;2023-06-24T17:36:26;26.20;56.60
8736;DHT22;4404;49.308;12.178;2023-06-24T17:40:31;25.90;53.60
8736;DHT22;4404;49.308;12.178;2023-06-24T17:42:33;25.80;55.90
8736;DHT22;4404;49.308;12.178;2023-06-24T17:46:37;25.70;56.60
8736;DHT22;4404;49.308;12.178;2023-06-24T17:48:39;25.70;58.10
8736;DHT22;4404;49.308;12.178;2023-06-24T17:50:42;25.50;55.00
8736;DHT22;4404;49.308;12.178;2023-06-24T17:52:44;25.30;55.60
8736;DHT22;4404;49.308;12.178;2023-06-24T17:54:46;25.30;57.20
8736;DHT22;4404;49.308;12.178;2023-06-24T17:56:48;25.30;59.50
8736;DHT22;4404;49.308;12.178;2023-06-24T17:58:51;25.20;60.00
8736;DHT22;4404;49.308;12.178;2023-06-24T18:00:53;25.10;59.30
8736;DHT22;4404;49.308;12.178;2023-06-24T18:02:54;25.10;60.30
8736;DHT22;4404;49.308;12.178;2023-06-24T18:04:57;25.10;58.20
8736;DHT22;4404;49.308;12.178;2023-06-24T18:07:00;25.00;60.50
8736;DHT22;4404;49.308;12.178;2023-06-24T18:09:02;25.00;58.50
8736;DHT22;4404;49.308;12.178;2023-06-24T18:11:04;24.90;61.70
8736;DHT22;4404;49.308;12.178;2023-06-24T18:13:06;24.80;61.70
8736;DHT22;4404;49.308;12.178;2023-06-24T18:15:09;24.80;61.70
8736;DHT22;4404;49.308;12.178;2023-06-24T18:17:12;24.70;64.60
8736;DHT22;4404;49.308;12.178;2023-06-24T18:19:14;24.70;64.40
8736;DHT22;4404;49.308;12.178;2023-06-24T18:21:16;24.60;64.00
8736;DHT22;4404;49.308;12.178;2023-06-24T18:23:19;24.50;63.70
8736;DHT22;4404;49.308;12.178;2023-06-24T18:25:21;24.50;64.40
8736;DHT22;4404;49.308;12.178;2023-06-24T18:27:24;24.40;65.80
8736;DHT22;4404;49.308;12.178;2023-06-24T18:29:26;24.30;64.20
8736;DHT22;4404;49.308;12.178;2023-06-24T18:33:30;24.20;64.30
8736;DHT22;4404;49.308;12.178;2023-06-24T18:35:32;24.00;66.10
8736;DHT22;4404;49.308;12.178;2023-06-24T18:39:39;23.70;68.20
8736;DHT22;4404;49.308;12.178;2023-06-24T18:41:41;23.60;67.80
8736;DHT22;4404;49.308;12.178;2023-06-24T18:43:44;23.50;69.20
8736;DHT22;4404;49.308;12.178;2023-06-24T18:45:47;23.30;65.60
8736;DHT22;4404;49.308;12.178;2023-06-24T18:47:49;23.30;66.20
8736;DHT22;4404;49.308;12.178;2023-06-24T18:49:53;23.20;67.60
8736;DHT22;4404;49.308;12.178;2023-06-24T18:51:55;23.10;68.00
8736;DHT22;4404;49.308;12.178;2023-06-24T18:53:57;23.00;67.00
8736;DHT22;4404;49.308;12.178;2023-06-24T18:56:00;22.90;67.70
8736;DHT22;4404;49.308;12.178;2023-06-24T18:58:03;22.80;68.40
8736;DHT22;4404;49.308;12.178;2023-06-24T19:00:06;22.70;69.50
8736;DHT22;4404;49.308;12.178;2023-06-24T19:02:10;22.60;70.60
8736;DHT22;4404;49.308;12.178;2023-06-24T19:04:12;22.50;70.20
8736;DHT22;4404;49.308;12.178;2023-06-24T19:06:17;22.30;70.70
8736;DHT22;4404;49.308;12.178;2023-06-24T19:08:46;22.20;71.00
8736;DHT22;4404;49.308;12.178;2023-06-24T19:10:52;21.70;70.70
